Agios Nikolas — SVAV5 — position and weather

sailwx.info

Track history (hours):
 
Tides and Currents Weather Stations Pressure Air Temp Water Temp Dewpoint Dewpoint Depression Visibility Wind Speed Wind Dir Waves Ship Positions

Agios Nikolas

Last reported at 2014-Sep-14 05:33 UTC. Time now 2014-Sep-17 01:36 UTC.
Position N 36°07' E 015°12'.

Length 225 m; draft 13.7 m.

Type: Cargo ship. MMSI: 240963000.

Date/timePositionNaut miles runAvg speedWind from/ knotsBaromVisibWave heightAir tempDewpointWater temp
2014-Sep-14 05:33N 36°07' E 015°12'1313.2
2014-Sep-14 04:33N 36°11' E 014°56'1313.3
2014-Sep-14 03:33N 36°15' E 014°41'1313.3
2014-Sep-14 02:33N 36°20' E 014°25'1613.9
2014-Sep-14 01:22N 36°25' E 014°06'5314.0
2014-Sep-13 21:34N 36°42' E 013°03'1313.4
2014-Sep-13 20:34N 36°47' E 012°48'1313.0
2014-Sep-13 19:34N 36°51' E 012°32'1313.1
2014-Sep-13 18:33N 36°55' E 012°17'38413.2
2014-Sep-12 13:25N 37°17' E 004°15'1513.6
2014-Sep-12 12:17N 37°16' E 003°56'16814.0
2014-Sep-12 00:16N 36°46' E 000°29'4913.3
2014-Sep-11 20:33N 36°37' W 000°31'4013.1
2014-Sep-11 17:31N 36°30' W 001°20'19614.0
2014-Sep-11 03:33N 35°59' W 005°20'  
2014-Sep-07 10:31N 50°15' W 001°33'1414.4
2014-Sep-07 09:33N 50°18' W 001°12'1312.5
2014-Sep-07 08:31N 50°21' W 000°52'1010.8
2014-Sep-07 07:33N 50°24' W 000°37'1110.7
2014-Sep-07 06:33N 50°27' W 000°21'1111.3
2014-Sep-07 05:33N 50°30' W 000°03'1312.2
2014-Sep-07 04:31N 50°33' E 000°16'1313.4
2014-Sep-07 03:33N 50°38' E 000°35'1414.1
2014-Sep-07 02:33N 50°46' E 000°53'1413.8
2014-Sep-07 01:33N 50°55' E 001°10'1312.6
2014-Sep-07 00:33N 51°03' E 001°25'1111.1
2014-Sep-06 23:33N 51°10' E 001°39'1010.3
2014-Sep-06 22:33N 51°18' E 001°49'1111.3
2014-Sep-06 21:33N 51°28' E 001°57'1312.7
2014-Sep-06 20:33N 51°38' E 002°10'1413.6
2014-Sep-06 19:33N 51°48' E 002°25'1414.4
2014-Sep-06 18:33N 51°58' E 002°41'2014.4
2014-Sep-06 17:08N 52°14' E 003°02'9512.4
2014-Sep-06 09:28N 53°30' E 004°36'19413.0
2014-Sep-05 18:30N 56°22' E 007°13'1213.1
2014-Sep-05 17:33N 56°32' E 007°25'11612.3
2014-Sep-05 08:09N 57°48' E 010°07'813.5
2014-Sep-05 07:33N 57°48' E 010°23'1312.6
2014-Sep-05 06:33N 57°47' E 010°46'1211.8
2014-Sep-05 05:33N 57°39' E 011°03'1313.3
2014-Sep-05 04:33N 57°30' E 011°21'1312.6
2014-Sep-05 03:33N 57°19' E 011°32'1312.8
2014-Sep-05 02:32N 57°07' E 011°40'1312.6
2014-Sep-05 01:33N 56°55' E 011°47'1212.3
2014-Sep-05 00:33N 56°43' E 011°51'1312.9
2014-Sep-04 23:32N 56°32' E 011°39'1313.2
2014-Sep-04 22:33N 56°21' E 011°27'1313.3
2014-Sep-04 21:33N 56°09' E 011°15'1413.5
2014-Sep-04 20:33N 55°58' E 011°01'1211.9
2014-Sep-04 19:33N 55°48' E 010°49'1412.9
2014-Sep-04 18:28N 55°34' E 010°50'1212.7
2014-Sep-04 17:32N 55°24' E 011°00'1212.8
2014-Sep-04 16:33N 55°12' E 011°05'1312.8
2014-Sep-04 15:32N 54°59' E 010°59'1713.5
2014-Sep-04 14:15N 54°43' E 010°47'912.0
2014-Sep-04 13:31N 54°37' E 010°57'2014.0
2014-Sep-04 12:05N 54°30' E 011°30'610.9
2014-Sep-04 11:33N 54°28' E 011°39'1212.3
2014-Sep-04 10:34N 54°26' E 012°00'1010.4
2014-Sep-04 09:33N 54°33' E 012°14'1110.4
2014-Sep-04 08:31N 54°41' E 012°27'1212.8
2014-Sep-04 07:33N 54°47' E 012°45'1312.9
2014-Sep-04 06:33N 54°52' E 013°05'1313.2
2014-Sep-04 05:34N 54°57' E 013°27'  
Track history (hours):
 
Tides and Currents Weather Stations Pressure Air Temp Water Temp Dewpoint Dewpoint Depression Visibility Wind Speed Wind Dir Waves Ship Positions

Agios Nikolas

Last reported at 2014-Sep-14 05:33 UTC. Time now 2014-Sep-17 01:36 UTC.
Position N 36°07' E 015°12'.

Length 225 m; draft 13.7 m.

Type: Cargo ship. MMSI: 240963000.

Date/timePositionNaut miles runAvg speedWind from/ knotsBaromVisibWave heightAir tempDewpointWater temp
2014-Sep-14 05:33N 36°07' E 015°12'1313.2
2014-Sep-14 04:33N 36°11' E 014°56'1313.3
2014-Sep-14 03:33N 36°15' E 014°41'1313.3
2014-Sep-14 02:33N 36°20' E 014°25'1613.9
2014-Sep-14 01:22N 36°25' E 014°06'5314.0
2014-Sep-13 21:34N 36°42' E 013°03'1313.4
2014-Sep-13 20:34N 36°47' E 012°48'1313.0
2014-Sep-13 19:34N 36°51' E 012°32'1313.1
2014-Sep-13 18:33N 36°55' E 012°17'38413.2
2014-Sep-12 13:25N 37°17' E 004°15'1513.6
2014-Sep-12 12:17N 37°16' E 003°56'16814.0
2014-Sep-12 00:16N 36°46' E 000°29'4913.3
2014-Sep-11 20:33N 36°37' W 000°31'4013.1
2014-Sep-11 17:31N 36°30' W 001°20'19614.0
2014-Sep-11 03:33N 35°59' W 005°20'  
2014-Sep-07 10:31N 50°15' W 001°33'1414.4
2014-Sep-07 09:33N 50°18' W 001°12'1312.5
2014-Sep-07 08:31N 50°21' W 000°52'1010.8
2014-Sep-07 07:33N 50°24' W 000°37'1110.7
2014-Sep-07 06:33N 50°27' W 000°21'1111.3
2014-Sep-07 05:33N 50°30' W 000°03'1312.2
2014-Sep-07 04:31N 50°33' E 000°16'1313.4
2014-Sep-07 03:33N 50°38' E 000°35'1414.1
2014-Sep-07 02:33N 50°46' E 000°53'1413.8
2014-Sep-07 01:33N 50°55' E 001°10'1312.6
2014-Sep-07 00:33N 51°03' E 001°25'1111.1
2014-Sep-06 23:33N 51°10' E 001°39'1010.3
2014-Sep-06 22:33N 51°18' E 001°49'1111.3
2014-Sep-06 21:33N 51°28' E 001°57'1312.7
2014-Sep-06 20:33N 51°38' E 002°10'1413.6
2014-Sep-06 19:33N 51°48' E 002°25'1414.4
2014-Sep-06 18:33N 51°58' E 002°41'2014.4
2014-Sep-06 17:08N 52°14' E 003°02'9512.4
2014-Sep-06 09:28N 53°30' E 004°36'19413.0
2014-Sep-05 18:30N 56°22' E 007°13'1213.1
2014-Sep-05 17:33N 56°32' E 007°25'11612.3
2014-Sep-05 08:09N 57°48' E 010°07'813.5
2014-Sep-05 07:33N 57°48' E 010°23'1312.6
2014-Sep-05 06:33N 57°47' E 010°46'1211.8
2014-Sep-05 05:33N 57°39' E 011°03'1313.3
2014-Sep-05 04:33N 57°30' E 011°21'1312.6
2014-Sep-05 03:33N 57°19' E 011°32'1312.8
2014-Sep-05 02:32N 57°07' E 011°40'1312.6
2014-Sep-05 01:33N 56°55' E 011°47'1212.3
2014-Sep-05 00:33N 56°43' E 011°51'1312.9
2014-Sep-04 23:32N 56°32' E 011°39'1313.2
2014-Sep-04 22:33N 56°21' E 011°27'1313.3
2014-Sep-04 21:33N 56°09' E 011°15'1413.5
2014-Sep-04 20:33N 55°58' E 011°01'1211.9
2014-Sep-04 19:33N 55°48' E 010°49'1412.9
2014-Sep-04 18:28N 55°34' E 010°50'1212.7
2014-Sep-04 17:32N 55°24' E 011°00'1212.8
2014-Sep-04 16:33N 55°12' E 011°05'1312.8
2014-Sep-04 15:32N 54°59' E 010°59'1713.5
2014-Sep-04 14:15N 54°43' E 010°47'912.0
2014-Sep-04 13:31N 54°37' E 010°57'2014.0
2014-Sep-04 12:05N 54°30' E 011°30'610.9
2014-Sep-04 11:33N 54°28' E 011°39'1212.3
2014-Sep-04 10:34N 54°26' E 012°00'1010.4
2014-Sep-04 09:33N 54°33' E 012°14'1110.4
2014-Sep-04 08:31N 54°41' E 012°27'1212.8
2014-Sep-04 07:33N 54°47' E 012°45'1312.9
2014-Sep-04 06:33N 54°52' E 013°05'1313.2
2014-Sep-04 05:34N 54°57' E 013°27'  

Dump ship's entire track history